Time;durP1;ratioP1;P1;durP2;ratioP2;P2;SDS_P1;SDS_P2;PMS_P1;PMS_P2;Temp;Humidity;BMP_temperature;BMP_pressure;BME280_temperature;BME280_humidity;BME280_pressure;Samples;Min_cycle;Max_cycle;Signal;HPM_P1;HPM_P2
2022/08/07 00:02:00;;;;;;;13.70;12.10;;;;;;;24.30;66.78;100489.22;1817995;78;20992;-46
2022/08/07 00:04:27;;;;;;;14.83;13.43;;;;;;;24.27;66.71;100490.16;1813256;77;21584;-46
2022/08/07 00:06:55;;;;;;;17.27;13.60;;;;;;;24.22;66.76;100492.13;1820385;78;20997;-45
2022/08/07 00:09:21;;;;;;;13.30;11.97;;;;;;;24.19;66.78;100487.20;1823888;77;22026;-46
2022/08/07 00:11:48;;;;;;;13.93;10.80;;;;;;;24.19;66.69;100492.58;1824996;77;21545;-47
2022/08/07 00:14:14;;;;;;;13.05;11.65;;;;;;;24.21;66.60;100487.81;1819899;78;21563;-46
2022/08/07 00:16:41;;;;;;;13.90;12.45;;;;;;;24.20;66.54;100491.52;1818326;78;21041;-46
2022/08/07 00:19:07;;;;;;;13.95;11.90;;;;;;;24.16;66.78;100490.80;1780218;78;21039;-46
2022/08/07 00:21:34;;;;;;;14.07;12.58;;;;;;;24.18;66.81;100494.95;1817289;77;22012;-46
2022/08/07 00:24:01;;;;;;;17.00;12.85;;;;;;;24.14;66.77;100493.72;1814417;77;21065;-46
2022/08/07 00:26:28;;;;;;;16.17;11.88;;;;;;;24.11;66.77;100500.33;1823369;77;21598;-46
2022/08/07 00:28:54;;;;;;;12.65;11.35;;;;;;;24.13;66.63;100498.78;1806491;77;20994;-46
2022/08/07 00:31:24;;;;;;;14.63;11.85;;;;;;;24.17;66.50;100497.31;1830165;77;21579;-46
2022/08/07 00:33:50;;;;;;;15.10;12.50;;;;;;;24.20;66.54;100499.59;1788509;78;21120;-46
2022/08/07 00:36:16;;;;;;;14.60;11.83;;;;;;;24.19;66.59;100500.64;1788497;78;21120;-46
2022/08/07 00:38:43;;;;;;;13.45;11.70;;;;;;;24.16;66.57;100501.05;1816159;77;21055;-46
2022/08/07 00:41:10;;;;;;;12.75;11.45;;;;;;;24.12;66.53;100499.80;1809094;78;21029;-46
2022/08/07 00:43:37;;;;;;;13.13;11.57;;;;;;;24.08;66.47;100500.74;1836890;77;20986;-46
2022/08/07 00:46:04;;;;;;;17.82;12.13;;;;;;;24.06;66.55;100504.16;1778398;79;21339;-46
2022/08/07 00:48:31;;;;;;;14.58;12.23;;;;;;;24.02;66.65;100504.26;1813080;77;21041;-46
2022/08/07 00:50:59;;;;;;;15.55;11.38;;;;;;;23.96;66.85;100505.11;1774066;78;21519;-46
2022/08/07 00:53:26;;;;;;;13.30;11.90;;;;;;;23.89;67.12;100502.42;1784115;79;21089;-46
2022/08/07 00:55:52;;;;;;;13.03;10.43;;;;;;;23.86;67.28;100502.02;1777423;78;21062;-46
2022/08/07 00:58:20;;;;;;;15.32;11.78;;;;;;;23.83;67.39;100505.94;1754273;80;21932;-46
2022/08/07 01:00:46;;;;;;;15.55;11.68;;;;;;;23.80;67.70;100503.62;1778322;78;21648;-46
2022/08/07 01:03:13;;;;;;;13.30;11.63;;;;;;;23.79;67.92;100508.70;1780087;79;21512;-47
2022/08/07 01:05:41;;;;;;;14.00;12.30;;;;;;;23.79;68.10;100503.83;1811561;78;21545;-47
2022/08/07 01:08:07;;;;;;;15.32;11.65;;;;;;;23.75;68.23;100508.80;1781779;78;21561;-46
2022/08/07 01:10:34;;;;;;;17.05;11.00;;;;;;;23.73;68.38;100508.18;1785723;79;21175;-46
2022/08/07 01:13:01;;;;;;;13.72;10.30;;;;;;;23.71;68.27;100509.73;1788114;78;21042;-49
2022/08/07 01:15:29;;;;;;;12.68;11.08;;;;;;;23.66;68.41;100512.20;1795133;79;22215;-46
2022/08/07 01:17:56;;;;;;;12.85;11.18;;;;;;;23.60;68.54;100515.70;1712609;80;21564;-46
2022/08/07 01:20:27;;;;;;;14.53;11.88;;;;;;;23.54;68.77;100518.70;1815040;77;21600;-46
2022/08/07 01:22:54;;;;;;;14.10;12.07;;;;;;;23.49;69.16;100515.81;1820104;78;21348;-46
2022/08/07 01:25:21;;;;;;;14.50;11.33;;;;;;;23.45;69.50;100518.61;1802975;78;21038;-46
2022/08/07 01:27:47;;;;;;;13.60;10.85;;;;;;;23.48;69.67;100522.20;1815689;78;21079;-46
2022/08/07 01:30:14;;;;;;;13.30;10.63;;;;;;;23.52;69.66;100517.27;1776000;78;21059;-46
2022/08/07 01:32:41;;;;;;;14.90;11.93;;;;;;;23.59;69.69;100513.22;1807512;77;21042;-46
2022/08/07 01:35:08;;;;;;;15.40;11.45;;;;;;;23.62;69.57;100520.88;1815585;78;21747;-46
2022/08/07 01:37:35;;;;;;;13.05;11.68;;;;;;;23.60;69.60;100514.36;1818961;77;21069;-46
2022/08/07 01:40:05;;;;;;;17.70;11.43;;;;;;;23.56;69.71;100524.69;1825424;77;21044;-46
2022/08/07 01:42:33;;;;;;;11.88;10.32;;;;;;;23.59;69.72;100522.63;1817669;77;21038;-46
2022/08/07 01:45:03;;;;;;;13.70;10.90;;;;;;;23.56;69.67;100516.64;1772508;78;21047;-46
2022/08/07 01:47:30;;;;;;;13.55;10.68;;;;;;;23.64;69.55;100520.17;1835956;77;21189;-46
2022/08/07 01:49:57;;;;;;;15.10;10.78;;;;;;;23.65;69.61;100511.88;1823513;77;21057;-46
2022/08/07 01:52:25;;;;;;;14.05;11.88;;;;;;;23.70;69.46;100517.50;1800571;77;21047;-46
2022/08/07 01:54:53;;;;;;;12.98;11.60;;;;;;;23.68;69.53;100507.97;1774706;78;21078;-46
2022/08/07 01:57:23;;;;;;;14.00;11.85;;;;;;;23.68;69.53;100514.16;1800440;78;21149;-46
2022/08/07 02:00:07;;;;;;;19.65;12.53;;;;;;;23.70;69.41;100507.24;1802807;78;20978;-46
2022/08/07 02:02:51;;;;;;;15.70;10.28;;;;;;;23.72;69.27;100514.58;1760972;78;21067;-46
2022/08/07 02:05:37;;;;;;;13.40;11.70;;;;;;;23.67;69.13;100515.22;1808597;77;20978;-46
2022/08/07 02:08:09;;;;;;;12.40;11.00;;;;;;;23.62;69.24;100515.50;1827631;78;21527;-46
2022/08/07 02:10:38;;;;;;;14.75;11.95;;;;;;;23.57;69.49;100514.80;1818793;77;21049;-46
2022/08/07 02:13:05;;;;;;;13.40;12.00;;;;;;;23.52;69.67;100523.98;1828314;78;21185;-46
2022/08/07 02:15:34;;;;;;;16.30;11.22;;;;;;;23.45;69.94;100518.61;1817882;77;21478;-46
2022/08/07 02:18:01;;;;;;;13.40;11.50;;;;;;;23.44;70.08;100515.59;1781592;78;21505;-46
2022/08/07 02:20:27;;;;;;;13.08;11.70;;;;;;;23.52;70.08;100519.44;1770349;78;21086;-46
2022/08/07 02:22:58;;;;;;;14.80;11.83;;;;;;;23.61;69.97;100520.05;1813954;77;21090;-46
2022/08/07 02:25:25;;;;;;;14.83;11.22;;;;;;;23.66;69.68;100521.61;1787441;78;21133;-46
2022/08/07 02:27:56;;;;;;;14.75;12.65;;;;;;;23.60;69.67;100525.11;1774363;79;21103;-46
2022/08/07 02:30:23;;;;;;;13.65;11.93;;;;;;;23.54;69.80;100526.77;1770085;78;21066;-46
2022/08/07 02:32:50;;;;;;;15.53;12.33;;;;;;;23.49;69.87;100526.55;1774289;79;22006;-46
2022/08/07 02:35:18;;;;;;;13.35;11.95;;;;;;;23.48;70.00;100526.23;1752984;78;21084;-47
2022/08/07 02:37:45;;;;;;;13.50;10.48;;;;;;;23.48;70.00;100523.55;1731937;80;21744;-46
2022/08/07 02:40:13;;;;;;;15.15;12.00;;;;;;;23.47;70.03;100524.59;1814095;77;21586;-46
2022/08/07 02:42:41;;;;;;;13.48;11.73;;;;;;;23.50;70.16;100524.19;1809678;77;21096;-46
2022/08/07 02:45:11;;;;;;;15.15;11.80;;;;;;;23.51;70.31;100529.03;1810520;78;21565;-46
2022/08/07 02:47:39;;;;;;;12.30;10.68;;;;;;;23.49;70.27;100527.08;1809956;78;21034;-46
2022/08/07 02:50:08;;;;;;;13.88;12.20;;;;;;;23.50;70.28;100529.56;1773603;78;21907;-46
2022/08/07 02:52:40;;;;;;;15.43;12.00;;;;;;;23.56;70.18;100532.75;1785535;78;21002;-46
2022/08/07 02:55:15;;;;;;;13.15;11.75;;;;;;;23.60;70.02;100531.82;1803273;78;20976;-46
2022/08/07 02:57:41;;;;;;;16.37;13.20;;;;;;;23.66;69.98;100536.91;1798925;78;21061;-46
2022/08/07 03:00:11;;;;;;;14.47;11.93;;;;;;;23.67;69.97;100540.73;1807215;77;21093;-46
2022/08/07 03:02:44;;;;;;;13.00;11.38;;;;;;;23.64;69.98;100538.45;1807658;77;21337;-46
2022/08/07 03:05:11;;;;;;;13.18;11.35;;;;;;;23.63;69.93;100535.97;1819064;77;21533;-46
2022/08/07 03:07:38;;;;;;;13.83;11.38;;;;;;;23.57;69.91;100541.66;1808296;78;20992;-46
2022/08/07 03:10:07;;;;;;;16.20;12.00;;;;;;;23.53;69.99;100539.87;1787668;77;21237;-46
2022/08/07 03:12:35;;;;;;;12.73;11.40;;;;;;;23.51;69.95;100537.09;1792842;78;21064;-46
2022/08/07 03:15:06;;;;;;;14.33;12.82;;;;;;;23.45;70.17;100542.77;1815976;77;21115;-47
2022/08/07 03:17:33;;;;;;;15.28;12.82;;;;;;;23.43;70.24;100538.63;1807474;77;21038;-46
2022/08/07 03:19:59;;;;;;;14.70;12.28;;;;;;;23.42;70.29;100543.17;1805101;77;21039;-47
2022/08/07 03:35:28;;;;;;;14.75;12.07;;;;;;;24.32;68.42;100536.59;1715500;79;21782;-48
2022/08/07 03:38:00;;;;;;;15.28;12.80;;;;;;;24.37;67.83;100544.86;1683576;82;21071;-47
2022/08/07 03:40:28;;;;;;;16.57;13.98;;;;;;;24.30;67.75;100548.38;1675798;82;21140;-47
2022/08/07 03:42:56;;;;;;;18.87;12.68;;;;;;;24.17;67.98;100545.70;1643411;84;21546;-47
2022/08/07 03:45:24;;;;;;;14.78;12.95;;;;;;;24.05;68.70;100546.03;1670839;83;21121;-47
2022/08/07 03:47:51;;;;;;;16.17;12.40;;;;;;;24.08;69.07;100543.75;1677574;83;21063;-47
2022/08/07 03:50:19;;;;;;;15.90;14.30;;;;;;;24.20;68.93;100547.16;1676566;83;21202;-47
2022/08/07 03:52:47;;;;;;;15.70;13.90;;;;;;;24.29;68.67;100544.05;1674913;83;21232;-46
2022/08/07 03:55:14;;;;;;;17.25;14.85;;;;;;;24.34;68.57;100542.58;1685129;83;21138;-46
2022/08/07 03:57:42;;;;;;;16.30;14.65;;;;;;;24.34;68.42;100543.92;1684994;83;21267;-47
2022/08/07 04:00:11;;;;;;;15.48;13.88;;;;;;;24.28;68.28;100544.26;1661284;83;21136;-48
2022/08/07 04:02:45;;;;;;;16.55;14.40;;;;;;;24.21;68.42;100542.92;1675598;84;21129;-47
2022/08/07 04:05:13;;;;;;;15.20;13.60;;;;;;;24.20;68.54;100546.63;1653825;84;21782;-47
2022/08/07 04:07:47;;;;;;;15.78;13.85;;;;;;;24.19;68.66;100546.34;1659139;85;21695;-47
2022/08/07 04:10:17;;;;;;;17.25;14.78;;;;;;;24.18;68.79;100541.17;1679108;83;21034;-46
2022/08/07 04:12:44;;;;;;;18.45;14.95;;;;;;;24.15;68.95;100555.84;1652034;84;21105;-47
2022/08/07 04:15:11;;;;;;;17.25;14.73;;;;;;;24.15;69.09;100553.68;1656523;85;21086;-47
2022/08/07 04:17:38;;;;;;;14.58;12.88;;;;;;;24.16;68.98;100551.28;1660384;84;21157;-46
2022/08/07 04:20:09;;;;;;;15.68;13.72;;;;;;;24.23;69.02;100552.13;1674548;83;21097;-47
2022/08/07 04:22:37;;;;;;;16.82;14.50;;;;;;;24.30;68.92;100551.59;1675402;83;21133;-46
2022/08/07 04:25:05;;;;;;;15.93;14.28;;;;;;;24.37;68.81;100554.27;1679098;83;21077;-46
2022/08/07 04:27:33;;;;;;;18.30;15.05;;;;;;;24.38;68.83;100556.75;1662917;83;21716;-46
2022/08/07 04:30:00;;;;;;;23.87;13.78;;;;;;;24.41;68.51;100554.14;1668490;84;21116;-45
2022/08/07 04:32:30;;;;;;;14.53;12.55;;;;;;;24.42;68.41;100558.50;1674735;82;21081;-46
2022/08/07 04:34:56;;;;;;;14.23;12.73;;;;;;;24.45;68.33;100557.55;1672506;83;21074;-47
2022/08/07 04:37:23;;;;;;;16.30;14.50;;;;;;;24.52;68.32;100559.41;1683282;83;21034;-46
2022/08/07 04:39:51;;;;;;;16.25;14.55;;;;;;;24.52;67.95;100558.88;1666944;83;21113;-46
2022/08/07 04:42:18;;;;;;;16.05;14.20;;;;;;;24.50;67.85;100558.27;1695488;82;21609;-47
2022/08/07 04:44:44;;;;;;;16.65;14.20;;;;;;;24.48;68.09;100561.70;1671814;83;21054;-47
2022/08/07 04:47:22;;;;;;;16.07;14.10;;;;;;;24.50;68.19;100561.49;1682996;83;21082;-47
2022/08/07 04:50:15;;;;;;;15.03;13.43;;;;;;;24.51;67.96;100565.32;1681925;83;21087;-46
2022/08/07 04:53:09;;;;;;;15.40;13.48;;;;;;;24.56;67.80;100570.08;1623021;86;21240;-49
2022/08/07 04:55:44;;;;;;;16.02;14.38;;;;;;;24.62;67.66;100566.55;1632116;86;21967;-46
2022/08/07 04:58:23;;;;;;;16.42;14.83;;;;;;;24.66;67.41;100574.50;1701765;83;21070;-45
2022/08/07 05:01:03;;;;;;;18.20;15.13;;;;;;;24.70;67.23;100578.96;1686255;83;21661;-48
2022/08/07 05:03:41;;;;;;;16.67;14.87;;;;;;;24.71;66.87;100579.25;1674009;83;21670;-46
2022/08/07 05:06:45;;;;;;;15.83;14.07;;;;;;;24.73;67.05;100583.89;1671348;84;21058;-46
2022/08/07 05:09:43;;;;;;;15.93;13.68;;;;;;;24.80;67.00;100578.00;1686617;83;21128;-46
2022/08/07 05:12:12;;;;;;;16.07;13.85;;;;;;;24.92;66.93;100583.02;1687640;83;21113;-46
2022/08/07 05:14:42;;;;;;;16.70;15.03;;;;;;;25.03;66.71;100577.47;1668047;84;21100;-47
2022/08/07 05:17:11;;;;;;;16.62;14.75;;;;;;;25.12;66.70;100578.90;1658596;86;21401;-46
2022/08/07 05:19:42;;;;;;;16.40;14.65;;;;;;;25.20;66.60;100585.89;1640824;86;21144;-51
2022/08/07 05:22:08;;;;;;;16.37;14.63;;;;;;;25.28;66.34;100584.86;1646725;85;21137;-47
2022/08/07 05:24:38;;;;;;;15.85;13.65;;;;;;;25.34;65.97;100589.39;1653877;84;21065;-47
2022/08/07 05:27:04;;;;;;;15.63;12.63;;;;;;;25.39;65.30;100589.04;1650207;85;21153;-46
2022/08/07 05:29:33;;;;;;;16.60;14.80;;;;;;;25.46;65.43;100591.70;1634472;85;21626;-46
2022/08/07 05:32:00;;;;;;;16.48;14.75;;;;;;;25.51;65.36;100589.71;1614412;86;21073;-46
2022/08/07 05:34:28;;;;;;;15.80;14.18;;;;;;;25.57;65.30;100593.70;1624799;86;21210;-46
2022/08/07 05:36:55;;;;;;;17.37;15.43;;;;;;;25.60;65.24;100596.47;1649092;84;21129;-46
2022/08/07 05:39:30;;;;;;;18.55;14.75;;;;;;;25.62;65.08;100598.95;1677905;83;21604;-46
2022/08/07 05:41:58;;;;;;;15.05;13.50;;;;;;;25.68;65.09;100590.83;1667127;83;21709;-46
2022/08/07 05:44:25;;;;;;;17.27;13.80;;;;;;;25.77;64.98;100588.69;1681852;83;21101;-46
2022/08/07 05:46:52;;;;;;;19.17;12.60;;;;;;;25.85;64.50;100593.00;1693233;83;22035;-46
2022/08/07 05:49:20;;;;;;;15.53;13.05;;;;;;;25.91;63.08;100594.30;1696252;83;21315;-46
2022/08/07 05:51:47;;;;;;;14.73;13.22;;;;;;;25.94;62.29;100588.97;1651011;84;21312;-46
2022/08/07 05:54:16;;;;;;;17.10;13.90;;;;;;;25.98;61.81;100594.28;1657004;84;21039;-46
2022/08/07 05:56:42;;;;;;;16.95;14.45;;;;;;;25.97;61.87;100593.15;1651746;84;21071;-48
2022/08/07 05:59:16;;;;;;;15.95;13.90;;;;;;;25.96;62.10;100590.98;1670576;83;21204;-46
2022/08/07 06:01:44;;;;;;;15.53;13.45;;;;;;;25.95;62.11;100587.97;1636120;84;21026;-46
2022/08/07 06:04:13;;;;;;;17.67;13.53;;;;;;;25.98;62.50;100591.58;1673988;83;21600;-45
2022/08/07 06:06:41;;;;;;;16.05;13.68;;;;;;;26.06;62.53;100593.19;1625265;86;21112;-46
2022/08/07 06:09:08;;;;;;;18.80;13.22;;;;;;;26.13;62.19;100596.65;1661896;83;21134;-45
2022/08/07 06:11:37;;;;;;;13.93;12.53;;;;;;;26.18;62.29;100596.00;1680383;83;21426;-45
2022/08/07 06:14:04;;;;;;;14.58;13.18;;;;;;;26.24;62.33;100595.09;1679023;83;21196;-46
2022/08/07 06:16:32;;;;;;;14.83;12.80;;;;;;;26.28;62.14;100596.31;1681216;83;21160;-45
2022/08/07 06:19:00;;;;;;;16.67;12.23;;;;;;;26.38;62.04;100600.67;1681020;83;21642;-46
2022/08/07 06:21:27;;;;;;;15.10;13.60;;;;;;;26.49;61.54;100601.30;1679271;83;21082;-46
2022/08/07 06:23:55;;;;;;;14.23;12.82;;;;;;;26.57;61.30;100602.05;1648735;83;21866;-47
2022/08/07 06:26:23;;;;;;;15.85;13.13;;;;;;;26.60;61.01;100607.82;1666167;83;21094;-45
2022/08/07 06:28:53;;;;;;;15.23;13.05;;;;;;;26.63;61.30;100604.71;1675954;83;22255;-46
2022/08/07 06:31:20;;;;;;;14.85;13.30;;;;;;;26.68;60.96;100602.16;1667630;83;21126;-46
2022/08/07 06:33:46;;;;;;;17.98;12.60;;;;;;;26.71;60.92;100602.22;1670772;84;21665;-46
2022/08/07 06:36:13;;;;;;;13.65;11.95;;;;;;;26.72;60.78;100603.88;1678028;83;21914;-46
2022/08/07 06:38:44;;;;;;;12.63;11.33;;;;;;;26.74;60.96;100603.13;1683365;84;21043;-46
2022/08/07 06:41:28;;;;;;;15.05;13.53;;;;;;;26.83;61.15;100604.50;1688618;83;21074;-47
2022/08/07 06:43:55;;;;;;;15.18;13.13;;;;;;;26.91;60.91;100599.30;1647707;85;21185;-47
2022/08/07 06:46:23;;;;;;;14.38;12.93;;;;;;;26.96;60.74;100598.09;1677910;83;21112;-47
2022/08/07 06:48:50;;;;;;;15.00;11.97;;;;;;;27.00;60.76;100597.95;1681566;83;21274;-47
2022/08/07 06:51:22;;;;;;;13.25;11.95;;;;;;;27.05;60.48;100591.89;1679058;83;21570;-46
2022/08/07 06:53:50;;;;;;;14.68;12.93;;;;;;;27.05;60.45;100587.84;1671434;83;21066;-46
2022/08/07 06:56:38;;;;;;;14.28;12.82;;;;;;;27.05;59.95;100596.75;1665672;83;21061;-47
2022/08/07 06:58:46;;;;;;;13.60;12.20;;;;;;;27.05;60.21;100590.00;1671618;83;21248;-46
2022/08/07 07:01:13;;;;;;;14.05;12.45;;;;;;;27.11;60.16;100580.69;1653384;85;21178;-46
2022/08/07 07:03:40;;;;;;;14.68;13.08;;;;;;;27.20;60.30;100589.61;1632807;84;21185;-47
2022/08/07 07:06:08;;;;;;;14.07;11.65;;;;;;;27.30;60.28;100590.42;1649393;84;21077;-46
2022/08/07 07:08:35;;;;;;;12.78;11.48;;;;;;;27.40;59.83;100589.87;1646811;85;21175;-46
2022/08/07 07:11:05;;;;;;;15.50;11.48;;;;;;;27.49;59.58;100584.97;1634971;85;21086;-46
2022/08/07 07:13:36;;;;;;;13.72;10.82;;;;;;;27.54;58.62;100587.30;1681846;83;21108;-46
2022/08/07 07:16:10;;;;;;;11.63;10.43;;;;;;;27.56;58.45;100591.94;1676008;84;21633;-47
2022/08/07 07:18:43;;;;;;;12.45;10.28;;;;;;;27.63;59.02;100592.38;1676289;83;21069;-47
2022/08/07 07:21:18;;;;;;;11.10;9.00;;;;;;;27.70;58.11;100596.61;1678831;82;21287;-46
2022/08/07 07:23:45;;;;;;;14.23;10.90;;;;;;;27.76;57.46;100594.88;1673360;83;21613;-46
2022/08/07 07:26:15;;;;;;;12.70;10.38;;;;;;;27.82;57.71;100588.52;1676603;83;21129;-46
2022/08/07 07:28:55;;;;;;;16.42;10.65;;;;;;;27.88;57.58;100598.42;1664377;83;21122;-46
2022/08/07 07:31:34;;;;;;;14.03;10.28;;;;;;;27.95;57.25;100594.28;1666935;83;21110;-46
2022/08/07 07:34:05;;;;;;;11.12;9.40;;;;;;;28.01;56.81;100597.92;1681683;83;21149;-46
2022/08/07 07:36:32;;;;;;;12.40;9.80;;;;;;;28.06;56.70;100600.25;1667543;83;21553;-46
2022/08/07 07:38:59;;;;;;;11.08;8.48;;;;;;;28.08;56.51;100597.31;1683326;83;21225;-46
2022/08/07 07:41:27;;;;;;;10.98;9.23;;;;;;;28.12;56.86;100598.47;1687309;83;21395;-47
2022/08/07 07:43:53;;;;;;;10.78;9.25;;;;;;;28.19;57.00;100604.59;1682749;83;21149;-47
2022/08/07 07:46:22;;;;;;;14.50;9.78;;;;;;;28.22;55.89;100605.48;1669790;83;21149;-46
2022/08/07 07:48:50;;;;;;;12.37;9.75;;;;;;;28.24;55.80;100604.70;1689084;83;21058;-46
2022/08/07 07:51:17;;;;;;;10.32;9.23;;;;;;;28.29;56.19;100605.36;1668872;83;21224;-46
2022/08/07 07:53:44;;;;;;;15.95;9.33;;;;;;;28.33;55.68;100600.61;1677429;83;21121;-46
2022/08/07 07:56:12;;;;;;;9.95;8.45;;;;;;;28.35;55.63;100605.25;1681157;83;21066;-46
2022/08/07 07:58:39;;;;;;;11.08;9.03;;;;;;;28.43;55.90;100599.17;1682235;83;21095;-47
2022/08/07 08:01:07;;;;;;;11.45;9.40;;;;;;;28.51;54.48;100597.47;1676960;83;21118;-46
2022/08/07 08:03:36;;;;;;;14.65;10.13;;;;;;;28.58;54.60;100596.02;1692595;82;21103;-47
2022/08/07 08:06:03;;;;;;;10.75;9.15;;;;;;;28.63;54.16;100602.39;1689628;83;21071;-46
2022/08/07 08:08:31;;;;;;;10.70;9.05;;;;;;;28.67;54.40;100598.13;1674732;84;21152;-47
2022/08/07 08:10:59;;;;;;;13.62;8.73;;;;;;;28.73;53.86;100596.34;1685388;82;21138;-47
2022/08/07 08:13:26;;;;;;;10.28;8.45;;;;;;;28.79;53.92;100598.11;1674571;83;21178;-46
2022/08/07 08:15:53;;;;;;;11.38;8.73;;;;;;;28.86;53.19;100595.27;1682784;83;21812;-46
2022/08/07 08:18:19;;;;;;;13.72;9.13;;;;;;;28.90;52.90;100597.81;1680603;83;21495;-46
2022/08/07 08:20:45;;;;;;;10.25;8.30;;;;;;;28.90;52.78;100588.33;1684578;83;21081;-47
2022/08/07 08:28:45;;;;;;;10.65;8.78;;;;;;;29.01;52.42;100594.77;1671071;83;21095;-46
2022/08/07 08:31:24;;;;;;;9.83;8.40;;;;;;;29.03;52.33;100592.13;1640095;85;21139;-46
2022/08/07 08:33:54;;;;;;;10.40;9.03;;;;;;;29.06;52.60;100590.26;1669367;83;22254;-50
2022/08/07 08:36:28;;;;;;;11.18;9.13;;;;;;;29.11;52.70;100587.38;1677836;83;21104;-46
2022/08/07 08:38:55;;;;;;;15.93;10.38;;;;;;;29.16;52.87;100588.83;1682308;83;21029;-46
2022/08/07 08:41:52;;;;;;;10.40;7.95;;;;;;;29.22;51.97;100587.91;1706527;82;21160;-46
2022/08/07 08:44:35;;;;;;;10.55;8.53;;;;;;;29.31;51.78;100581.56;1680957;84;21129;-47
2022/08/07 08:47:30;;;;;;;10.15;8.65;;;;;;;29.40;51.03;100578.73;1679195;83;21035;-47
2022/08/07 08:50:20;;;;;;;11.08;9.23;;;;;;;29.47;51.31;100580.75;1687087;83;21131;-46
2022/08/07 08:52:52;;;;;;;10.38;9.05;;;;;;;29.58;51.16;100575.80;1670968;84;21376;-47
2022/08/07 08:55:33;;;;;;;10.68;8.60;;;;;;;29.62;50.27;100573.42;1674857;83;21148;-46
2022/08/07 08:58:27;;;;;;;9.80;7.65;;;;;;;29.63;49.94;100574.53;1670441;84;21169;-47
2022/08/07 09:01:23;;;;;;;9.30;8.38;;;;;;;29.65;49.82;100568.87;1682300;82;21023;-46
2022/08/07 09:04:17;;;;;;;11.35;9.13;;;;;;;29.71;50.66;100567.09;1683568;83;21111;-47
2022/08/07 09:07:11;;;;;;;13.18;8.50;;;;;;;29.80;49.60;100569.15;1673641;83;21006;-47
2022/08/07 09:09:55;;;;;;;10.25;8.55;;;;;;;29.90;49.50;100560.36;1653251;84;21229;-47
2022/08/07 09:12:43;;;;;;;12.73;9.43;;;;;;;30.00;49.30;100556.45;1684397;83;21087;-48
2022/08/07 09:15:34;;;;;;;11.78;8.63;;;;;;;30.12;48.98;100548.20;1668788;84;21570;-47
2022/08/07 09:18:44;;;;;;;13.13;8.98;;;;;;;30.24;48.50;100558.96;1688335;83;21113;-47
2022/08/07 09:21:20;;;;;;;9.80;8.20;;;;;;;30.34;47.65;100558.29;1651065;85;21280;-47
2022/08/07 09:24:07;;;;;;;9.45;8.33;;;;;;;30.44;47.25;100551.67;1664867;85;21153;-47
2022/08/07 09:26:43;;;;;;;10.50;8.53;;;;;;;30.52;47.67;100548.52;1676890;83;21100;-47
2022/08/07 09:29:40;;;;;;;11.35;9.45;;;;;;;30.66;47.27;100546.25;1682155;83;21518;-47
2022/08/07 09:32:33;;;;;;;10.23;8.78;;;;;;;30.75;47.18;100546.10;1676809;83;21061;-47
2022/08/07 09:35:45;;;;;;;11.83;8.65;;;;;;;30.80;47.92;100543.98;1689017;83;21115;-46
2022/08/07 09:38:29;;;;;;;9.10;6.97;;;;;;;30.81;47.95;100537.46;1616733;85;21155;-47
2022/08/07 09:41:24;;;;;;;7.83;5.45;;;;;;;30.78;45.79;100540.68;1648235;84;21188;-46
2022/08/07 09:44:10;;;;;;;7.53;4.80;;;;;;;30.69;43.93;100540.86;1630052;85;22379;-47
2022/08/07 09:47:15;;;;;;;6.93;5.30;;;;;;;30.59;44.26;100547.52;1644625;85;21575;-46
2022/08/07 09:49:56;;;;;;;7.45;4.75;;;;;;;30.54;43.92;100545.02;1641724;85;21165;-47
2022/08/07 09:52:43;;;;;;;7.83;4.97;;;;;;;30.42;44.12;100544.31;1635657;85;22043;-47
2022/08/07 09:55:24;;;;;;;7.37;5.62;;;;;;;30.33;43.72;100548.52;1678796;83;21134;-47
2022/08/07 09:58:25;;;;;;;7.87;5.22;;;;;;;30.20;44.00;100546.98;1666923;84;21069;-47
2022/08/07 10:01:33;;;;;;;7.05;5.20;;;;;;;30.11;45.53;100546.58;1673264;83;21148;-47
2022/08/07 10:04:38;;;;;;;10.10;6.00;;;;;;;29.99;45.92;100541.77;1670631;84;21221;-46
2022/08/07 10:07:27;;;;;;;6.47;5.20;;;;;;;29.88;46.65;100548.94;1675017;84;21149;-46
2022/08/07 10:10:27;;;;;;;8.18;5.20;;;;;;;29.76;46.78;100554.42;1689702;83;21233;-46
2022/08/07 10:13:39;;;;;;;6.60;5.42;;;;;;;29.65;47.38;100560.19;1676945;83;21173;-47
2022/08/07 10:16:53;;;;;;;8.33;6.05;;;;;;;29.56;48.04;100556.80;1664473;84;21256;-47
2022/08/07 10:20:11;;;;;;;8.08;6.22;;;;;;;29.35;48.95;100550.18;1693459;83;21200;-47
2022/08/07 10:23:12;;;;;;;9.35;6.33;;;;;;;29.11;48.96;100561.64;1672953;84;21155;-47
2022/08/07 10:26:06;;;;;;;6.80;5.65;;;;;;;28.81;47.48;100575.67;1654514;85;21103;-47
2022/08/07 10:29:27;;;;;;;7.55;5.50;;;;;;;28.52;49.28;100578.83;1675399;83;21085;-46
2022/08/07 10:32:20;;;;;;;9.23;5.53;;;;;;;28.21;50.32;100578.15;1637974;84;21114;-47
2022/08/07 10:35:20;;;;;;;8.13;5.42;;;;;;;27.98;51.81;100589.23;1675570;83;21583;-48
2022/08/07 10:37:58;;;;;;;10.18;6.10;;;;;;;27.81;52.23;100585.54;1666772;84;21332;-47
2022/08/07 10:40:30;;;;;;;10.58;6.25;;;;;;;27.61;54.03;100585.84;1676880;83;21057;-47
2022/08/07 10:43:08;;;;;;;9.00;5.97;;;;;;;27.48;54.28;100581.98;1688605;83;21499;-47
2022/08/07 10:45:38;;;;;;;10.53;6.22;;;;;;;27.28;54.57;100578.17;1674021;84;21061;-46
2022/08/07 10:48:26;;;;;;;10.38;6.35;;;;;;;27.06;55.04;100568.67;1687617;83;21018;-47
2022/08/07 10:51:10;;;;;;;9.10;6.17;;;;;;;26.92;56.39;100566.40;1651785;85;21161;-46
2022/08/07 10:53:51;;;;;;;9.10;6.30;;;;;;;26.81;56.91;100551.23;1679840;83;21119;-46
2022/08/07 10:56:43;;;;;;;8.65;5.58;;;;;;;26.77;57.28;100539.25;1680883;83;21073;-47
2022/08/07 10:59:53;;;;;;;8.00;5.62;;;;;;;26.71;56.11;100540.14;1672334;83;21101;-47
2022/08/07 11:02:42;;;;;;;7.45;5.72;;;;;;;26.64;56.71;100547.50;1655837;84;21130;-48
2022/08/07 11:05:41;;;;;;;9.10;5.47;;;;;;;26.59;57.28;100550.84;1683744;82;21141;-48
2022/08/07 11:08:52;;;;;;;9.68;6.12;;;;;;;26.57;56.56;100550.25;1680851;83;21147;-48
2022/08/07 11:11:32;;;;;;;8.43;5.80;;;;;;;26.64;56.37;100550.20;1695427;83;21150;-46
2022/08/07 11:14:09;;;;;;;8.18;6.20;;;;;;;26.75;56.60;100551.31;1622865;85;21620;-46
2022/08/07 11:16:42;;;;;;;8.95;5.28;;;;;;;26.78;57.02;100550.86;1649208;83;21132;-46
2022/08/07 11:19:37;;;;;;;8.05;5.92;;;;;;;26.82;56.59;100542.63;1676415;83;21143;-47
2022/08/07 11:22:28;;;;;;;9.73;6.45;;;;;;;26.86;56.30;100536.56;1689237;83;21054;-46
2022/08/07 11:25:12;;;;;;;7.25;5.85;;;;;;;26.91;57.88;100544.48;1685729;83;21081;-46
2022/08/07 11:27:50;;;;;;;11.53;6.60;;;;;;;26.91;59.00;100543.95;1633531;85;21074;-46
2022/08/07 11:30:19;;;;;;;7.50;5.80;;;;;;;26.90;59.60;100546.38;1656409;84;21129;-47
2022/08/07 11:33:09;;;;;;;8.05;6.50;;;;;;;26.86;59.97;100543.30;1684031;83;21220;-47
2022/08/07 11:35:47;;;;;;;9.05;7.00;;;;;;;26.85;59.10;100542.18;1663742;84;21379;-46
2022/08/07 11:38:34;;;;;;;8.50;6.33;;;;;;;26.84;58.80;100530.54;1669857;84;21110;-47
2022/08/07 11:41:09;;;;;;;9.28;6.25;;;;;;;26.82;58.77;100527.25;1657232;85;21598;-46
2022/08/07 11:43:56;;;;;;;9.05;7.10;;;;;;;26.80;58.48;100522.61;1632130;86;21176;-46
2022/08/07 11:46:56;;;;;;;9.15;7.10;;;;;;;26.77;58.70;100520.36;1646528;85;21201;-46
2022/08/07 11:50:02;;;;;;;9.45;6.60;;;;;;;26.76;58.99;100530.03;1646695;85;21111;-46
2022/08/07 11:53:09;;;;;;;11.53;7.62;;;;;;;26.79;58.91;100543.89;1653957;84;21049;-46
2022/08/07 11:56:02;;;;;;;8.00;6.47;;;;;;;26.80;58.80;100546.91;1643009;84;21208;-46
2022/08/07 11:59:07;;;;;;;8.88;6.53;;;;;;;26.86;59.21;100555.45;1654787;84;21130;-46
2022/08/07 12:01:59;;;;;;;9.18;6.90;;;;;;;26.87;60.09;100548.98;1689411;83;21139;-46
2022/08/07 12:04:43;;;;;;;9.25;7.28;;;;;;;26.91;60.95;100545.30;1693460;83;21432;-49
2022/08/07 12:07:26;;;;;;;10.08;7.55;;;;;;;27.00;60.52;100539.91;1654979;83;21170;-46
2022/08/07 12:10:10;;;;;;;12.80;7.80;;;;;;;27.04;60.54;100531.63;1678354;83;21096;-46